sensor_id;sensor_type;location;lat;lon;timestamp;pressure;altitude;pressure_sealevel;temperature;humidity
70758;BME280;59316;52.964;7.102;2023-04-06T00:04:00;101891.53;;;0.58;nan
70758;BME280;59316;52.964;7.102;2023-04-06T00:09:21;101886.41;;;0.50;nan
70758;BME280;59316;52.964;7.102;2023-04-06T00:14:43;101881.22;;;0.43;nan
70758;BME280;59316;52.964;7.102;2023-04-06T00:20:05;101870.13;;;0.25;nan
70758;BME280;59316;52.964;7.102;2023-04-06T00:25:27;101871.81;;;0.15;nan
70758;BME280;59316;52.964;7.102;2023-04-06T00:30:48;101860.69;;;0.07;nan
70758;BME280;59316;52.964;7.102;2023-04-06T00:36:09;101858.13;;;0.07;nan
70758;BME280;59316;52.964;7.102;2023-04-06T00:41:31;101854.69;;;0.04;nan
70758;BME280;59316;52.964;7.102;2023-04-06T00:46:53;101845.22;;;-0.04;nan
70758;BME280;59316;52.964;7.102;2023-04-06T00:52:15;101834.06;;;-0.15;nan
70758;BME280;59316;52.964;7.102;2023-04-06T00:57:38;101837.53;;;-0.05;nan
70758;BME280;59316;52.964;7.102;2023-04-06T01:03:00;101834.09;;;-0.04;nan
70758;BME280;59316;52.964;7.102;2023-04-06T01:08:29;101826.38;;;-0.10;nan
70758;BME280;59316;52.964;7.102;2023-04-06T01:14:04;101809.25;;;0.01;nan
70758;BME280;59316;52.964;7.102;2023-04-06T01:19:45;101808.38;;;-0.20;nan
70758;BME280;59316;52.964;7.102;2023-04-06T01:25:14;101810.94;;;-0.34;nan
70758;BME280;59316;52.964;7.102;2023-04-06T01:30:44;101804.91;;;-0.42;nan
70758;BME280;59316;52.964;7.102;2023-04-06T01:36:29;101792.94;;;-0.49;nan
70758;BME280;59316;52.964;7.102;2023-04-06T01:42:01;101793.75;;;-0.55;nan
70758;BME280;59316;52.964;7.102;2023-04-06T01:47:25;101795.47;;;-0.51;nan
70758;BME280;59316;52.964;7.102;2023-04-06T01:52:47;101782.59;;;-0.69;nan
70758;BME280;59316;52.964;7.102;2023-04-06T01:58:09;101785.16;;;-0.75;nan
70758;BME280;59316;52.964;7.102;2023-04-06T02:03:31;101784.31;;;-0.67;nan
70758;BME280;59316;52.964;7.102;2023-04-06T02:08:59;101780.03;;;-0.68;nan
70758;BME280;59316;52.964;7.102;2023-04-06T02:14:23;101772.38;;;-0.49;nan
70758;BME280;59316;52.964;7.102;2023-04-06T02:19:48;101768.94;;;-0.51;nan
70758;BME280;59316;52.964;7.102;2023-04-06T02:25:10;101769.75;;;-0.68;nan
70758;BME280;59316;52.964;7.102;2023-04-06T02:30:32;101768.03;;;-0.81;nan
70758;BME280;59316;52.964;7.102;2023-04-06T02:35:53;101760.34;;;-0.72;nan
70758;BME280;59316;52.964;7.102;2023-04-06T02:41:16;101762.94;;;-0.67;nan
70758;BME280;59316;52.964;7.102;2023-04-06T02:46:38;101762.91;;;-0.69;nan
70758;BME280;59316;52.964;7.102;2023-04-06T02:52:00;101756.94;;;-0.61;nan
70758;BME280;59316;52.964;7.102;2023-04-06T02:57:25;101747.50;;;-0.72;nan
70758;BME280;59316;52.964;7.102;2023-04-06T03:02:47;101744.06;;;-0.68;nan
70758;BME280;59316;52.964;7.102;2023-04-06T03:08:11;101739.78;;;-0.70;nan
70758;BME280;59316;52.964;7.102;2023-04-06T03:13:37;101744.94;;;-0.70;nan
70758;BME280;59316;52.964;7.102;2023-04-06T03:18:58;101738.09;;;-0.34;nan
70758;BME280;59316;52.964;7.102;2023-04-06T03:24:20;101741.53;;;-0.10;nan
70758;BME280;59316;52.964;7.102;2023-04-06T03:29:42;101741.47;;;0.08;nan
70758;BME280;59316;52.964;7.102;2023-04-06T03:35:08;101735.53;;;-0.09;nan
70758;BME280;59316;52.964;7.102;2023-04-06T03:40:30;101729.50;;;0.04;nan
70758;BME280;59316;52.964;7.102;2023-04-06T03:45:52;101729.53;;;-0.08;nan
70758;BME280;59316;52.964;7.102;2023-04-06T03:51:14;101720.88;;;0.21;nan
70758;BME280;59316;52.964;7.102;2023-04-06T03:56:35;101729.50;;;-0.02;nan
70758;BME280;59316;52.964;7.102;2023-04-06T04:01:57;101717.47;;;0.15;nan
70758;BME280;59316;52.964;7.102;2023-04-06T04:07:18;101731.22;;;-0.07;nan
70758;BME280;59316;52.964;7.102;2023-04-06T04:12:39;101723.53;;;-0.44;nan
70758;BME280;59316;52.964;7.102;2023-04-06T04:18:01;101730.38;;;-0.45;nan
70758;BME280;59316;52.964;7.102;2023-04-06T04:23:23;101740.66;;;-0.28;nan
70758;BME280;59316;52.964;7.102;2023-04-06T04:28:44;101728.69;;;-0.34;nan
70758;BME280;59316;52.964;7.102;2023-04-06T04:34:07;101724.38;;;-0.39;nan
70758;BME280;59316;52.964;7.102;2023-04-06T04:39:29;101726.97;;;-0.59;nan
70758;BME280;59316;52.964;7.102;2023-04-06T04:44:56;101729.53;;;-0.75;nan
70758;BME280;59316;52.964;7.102;2023-04-06T04:50:27;101716.63;;;-0.95;nan
70758;BME280;59316;52.964;7.102;2023-04-06T04:55:50;101720.03;;;-0.93;nan
70758;BME280;59316;52.964;7.102;2023-04-06T05:01:13;101711.53;;;-0.67;nan
70758;BME280;59316;52.964;7.102;2023-04-06T05:06:36;101714.97;;;-0.23;nan
70758;BME280;59316;52.964;7.102;2023-04-06T05:11:59;101714.91;;;0.12;nan
70758;BME280;59316;52.964;7.102;2023-04-06T05:17:22;101718.31;;;0.14;nan
70758;BME280;59316;52.964;7.102;2023-04-06T05:22:44;101712.34;;;0.12;nan
70758;BME280;59316;52.964;7.102;2023-04-06T05:28:05;101720.88;;;0.21;nan
70758;BME280;59316;52.964;7.102;2023-04-06T05:33:29;101722.59;;;0.17;nan
70758;BME280;59316;52.964;7.102;2023-04-06T05:38:58;101717.44;;;0.25;nan
70758;BME280;59316;52.964;7.102;2023-04-06T05:44:31;101720.81;;;0.45;nan
70758;BME280;59316;52.964;7.102;2023-04-06T05:49:59;101712.13;;;0.70;nan
70758;BME280;59316;52.964;7.102;2023-04-06T05:55:27;101706.13;;;0.69;nan
70758;BME280;59316;52.964;7.102;2023-04-06T06:01:01;101694.75;;;1.04;nan
70758;BME280;59316;52.964;7.102;2023-04-06T06:06:30;101691.03;;;1.45;nan
70758;BME280;59316;52.964;7.102;2023-04-06T06:12:09;101690.31;;;2.20;nan
70758;BME280;59316;52.964;7.102;2023-04-06T06:17:33;101686.03;;;2.86;nan
70758;BME280;59316;52.964;7.102;2023-04-06T06:22:57;101693.41;;;3.12;nan
70758;BME280;59316;52.964;7.102;2023-04-06T06:28:18;101684.13;;;3.53;nan
70758;BME280;59316;52.964;7.102;2023-04-06T06:33:40;101680.34;;;3.74;nan
70758;BME280;59316;52.964;7.102;2023-04-06T06:39:01;101676.38;;;4.45;nan
70758;BME280;59316;52.964;7.102;2023-04-06T06:44:24;101673.91;;;4.82;nan
70758;BME280;59316;52.964;7.102;2023-04-06T06:49:45;101675.72;;;5.50;nan
70758;BME280;59316;52.964;7.102;2023-04-06T06:55:08;101670.09;;;6.62;nan
70758;BME280;59316;52.964;7.102;2023-04-06T07:00:31;101667.81;;;7.34;nan
70758;BME280;59316;52.964;7.102;2023-04-06T07:05:53;101663.72;;;7.79;nan
70758;BME280;59316;52.964;7.102;2023-04-06T07:11:16;101666.31;;;8.30;nan
70758;BME280;59316;52.964;7.102;2023-04-06T07:16:38;101659.19;;;8.57;nan
70758;BME280;59316;52.964;7.102;2023-04-06T07:22:00;101656.44;;;9.06;nan
70758;BME280;59316;52.964;7.102;2023-04-06T07:27:21;101648.50;;;9.71;nan
70758;BME280;59316;52.964;7.102;2023-04-06T07:32:43;101653.63;;;9.74;nan
70758;BME280;59316;52.964;7.102;2023-04-06T07:38:04;101646.44;;;10.38;nan
70758;BME280;59316;52.964;7.102;2023-04-06T07:43:28;101638.75;;;11.27;nan
70758;BME280;59316;52.964;7.102;2023-04-06T07:48:49;101639.81;;;11.41;nan
70758;BME280;59316;52.964;7.102;2023-04-06T07:54:10;101627.78;;;11.54;nan
70758;BME280;59316;52.964;7.102;2023-04-06T07:59:32;101630.38;;;12.05;nan
70758;BME280;59316;52.964;7.102;2023-04-06T08:04:54;101616.56;;;12.67;nan
70758;BME280;59316;52.964;7.102;2023-04-06T08:10:15;101614.78;;;13.14;nan
70758;BME280;59316;52.964;7.102;2023-04-06T08:15:37;101615.56;;;13.30;nan
70758;BME280;59316;52.964;7.102;2023-04-06T08:20:59;101621.34;;;13.66;nan
70758;BME280;59316;52.964;7.102;2023-04-06T08:26:20;101620.44;;;13.82;nan
70758;BME280;59316;52.964;7.102;2023-04-06T08:31:41;101619.91;;;14.33;nan
70758;BME280;59316;52.964;7.102;2023-04-06T08:37:03;101609.31;;;14.20;nan
70758;BME280;59316;52.964;7.102;2023-04-06T08:42:25;101616.28;;;14.90;nan
70758;BME280;59316;52.964;7.102;2023-04-06T08:47:51;101612.13;;;15.26;nan
70758;BME280;59316;52.964;7.102;2023-04-06T08:53:13;101607.72;;;15.26;nan
70758;BME280;59316;52.964;7.102;2023-04-06T08:58:37;101598.09;;;14.72;nan
70758;BME280;59316;52.964;7.102;2023-04-06T09:04:00;101602.72;;;15.49;nan
70758;BME280;59316;52.964;7.102;2023-04-06T09:09:23;101597.53;;;15.48;nan
70758;BME280;59316;52.964;7.102;2023-04-06T09:14:44;101593.91;;;15.87;nan
70758;BME280;59316;52.964;7.102;2023-04-06T09:20:06;101588.25;;;15.55;nan
70758;BME280;59316;52.964;7.102;2023-04-06T09:25:28;101584.75;;;15.93;nan
70758;BME280;59316;52.964;7.102;2023-04-06T09:30:49;101574.00;;;15.70;nan
70758;BME280;59316;52.964;7.102;2023-04-06T09:36:11;101572.41;;;15.81;nan
70758;BME280;59316;52.964;7.102;2023-04-06T09:41:34;101578.78;;;15.39;nan
70758;BME280;59316;52.964;7.102;2023-04-06T09:46:56;101570.88;;;15.39;nan
70758;BME280;59316;52.964;7.102;2023-04-06T09:52:21;101572.75;;;15.63;nan
70758;BME280;59316;52.964;7.102;2023-04-06T09:58:07;101553.53;;;15.87;nan
70758;BME280;59316;52.964;7.102;2023-04-06T10:09:02;101548.75;;;16.53;nan
70758;BME280;59316;52.964;7.102;2023-04-06T10:14:25;101540.09;;;16.75;nan
70758;BME280;59316;52.964;7.102;2023-04-06T10:20:03;101533.75;;;16.67;nan
70758;BME280;59316;52.964;7.102;2023-04-06T10:25:34;101533.63;;;17.38;nan
70758;BME280;59316;52.964;7.102;2023-04-06T10:31:00;101536.72;;;17.20;nan
70758;BME280;59316;52.964;7.102;2023-04-06T10:36:27;101534.31;;;16.70;nan
70758;BME280;59316;52.964;7.102;2023-04-06T10:41:53;101532.19;;;16.75;nan
70758;BME280;59316;52.964;7.102;2023-04-06T10:47:18;101536.56;;;16.15;nan
70758;BME280;59316;52.964;7.102;2023-04-06T10:52:39;101523.59;;;15.75;nan
70758;BME280;59316;52.964;7.102;2023-04-06T10:58:00;101516.66;;;15.61;nan
70758;BME280;59316;52.964;7.102;2023-04-06T11:03:22;101516.94;;;15.69;nan
70758;BME280;59316;52.964;7.102;2023-04-06T11:08:44;101513.59;;;16.77;nan
70758;BME280;59316;52.964;7.102;2023-04-06T11:14:05;101502.25;;;17.56;nan
70758;BME280;59316;52.964;7.102;2023-04-06T11:19:27;101515.59;;;17.09;nan
70758;BME280;59316;52.964;7.102;2023-04-06T11:24:49;101517.13;;;17.00;nan
70758;BME280;59316;52.964;7.102;2023-04-06T11:30:10;101501.44;;;17.33;nan
70758;BME280;59316;52.964;7.102;2023-04-06T11:35:33;101505.84;;;17.10;nan
70758;BME280;59316;52.964;7.102;2023-04-06T11:40:55;101499.13;;;17.51;nan
70758;BME280;59316;52.964;7.102;2023-04-06T11:46:19;101497.34;;;17.85;nan
70758;BME280;59316;52.964;7.102;2023-04-06T11:51:41;101497.22;;;17.30;nan
70758;BME280;59316;52.964;7.102;2023-04-06T11:57:04;101488.13;;;16.76;nan
70758;BME280;59316;52.964;7.102;2023-04-06T12:02:25;101483.75;;;16.99;nan
70758;BME280;59316;52.964;7.102;2023-04-06T12:07:47;101481.19;;;16.86;nan
70758;BME280;59316;52.964;7.102;2023-04-06T12:13:08;101477.97;;;16.58;nan
70758;BME280;59316;52.964;7.102;2023-04-06T12:18:30;101472.91;;;16.91;nan
70758;BME280;59316;52.964;7.102;2023-04-06T12:23:52;101470.59;;;16.39;nan
70758;BME280;59316;52.964;7.102;2023-04-06T12:29:13;101464.03;;;17.83;nan
70758;BME280;59316;52.964;7.102;2023-04-06T12:34:35;101469.69;;;17.55;nan
70758;BME280;59316;52.964;7.102;2023-04-06T12:39:56;101469.22;;;17.05;nan
70758;BME280;59316;52.964;7.102;2023-04-06T12:45:18;101457.09;;;17.48;nan
70758;BME280;59316;52.964;7.102;2023-04-06T12:50:39;101449.03;;;17.49;nan
70758;BME280;59316;52.964;7.102;2023-04-06T12:56:02;101451.69;;;16.93;nan
70758;BME280;59316;52.964;7.102;2023-04-06T13:01:32;101448.47;;;17.12;nan
70758;BME280;59316;52.964;7.102;2023-04-06T13:06:53;101446.63;;;16.54;nan
70758;BME280;59316;52.964;7.102;2023-04-06T13:12:15;101457.94;;;16.32;nan
70758;BME280;59316;52.964;7.102;2023-04-06T13:17:37;101450.53;;;15.88;nan
70758;BME280;59316;52.964;7.102;2023-04-06T13:22:58;101440.56;;;15.81;nan
70758;BME280;59316;52.964;7.102;2023-04-06T13:28:20;101441.75;;;15.76;nan
70758;BME280;59316;52.964;7.102;2023-04-06T13:33:42;101440.34;;;15.47;nan
70758;BME280;59316;52.964;7.102;2023-04-06T13:39:03;101435.91;;;15.47;nan
70758;BME280;59316;52.964;7.102;2023-04-06T13:44:25;101437.22;;;15.66;nan
70758;BME280;59316;52.964;7.102;2023-04-06T13:49:50;101421.19;;;15.69;nan
70758;BME280;59316;52.964;7.102;2023-04-06T13:55:11;101422.94;;;15.57;nan
70758;BME280;59316;52.964;7.102;2023-04-06T14:00:33;101421.44;;;15.53;nan
70758;BME280;59316;52.964;7.102;2023-04-06T14:05:55;101422.44;;;15.13;nan
70758;BME280;59316;52.964;7.102;2023-04-06T14:11:21;101430.44;;;15.24;nan
70758;BME280;59316;52.964;7.102;2023-04-06T14:16:42;101429.28;;;15.03;nan
70758;BME280;59316;52.964;7.102;2023-04-06T14:22:04;101414.03;;;14.95;nan
70758;BME280;59316;52.964;7.102;2023-04-06T14:27:26;101418.84;;;15.14;nan
70758;BME280;59316;52.964;7.102;2023-04-06T14:32:47;101404.00;;;15.00;nan
70758;BME280;59316;52.964;7.102;2023-04-06T14:38:09;101401.88;;;15.18;nan
70758;BME280;59316;52.964;7.102;2023-04-06T14:43:30;101404.44;;;15.20;nan
70758;BME280;59316;52.964;7.102;2023-04-06T14:48:55;101404.09;;;15.11;nan
70758;BME280;59316;52.964;7.102;2023-04-06T14:54:16;101399.69;;;14.99;nan
70758;BME280;59316;52.964;7.102;2023-04-06T14:59:38;101392.44;;;14.77;nan
70758;BME280;59316;52.964;7.102;2023-04-06T15:05:00;101404.78;;;14.64;nan
70758;BME280;59316;52.964;7.102;2023-04-06T15:10:21;101388.63;;;14.55;nan
70758;BME280;59316;52.964;7.102;2023-04-06T15:15:43;101390.22;;;14.45;nan
70758;BME280;59316;52.964;7.102;2023-04-06T15:21:05;101406.78;;;14.73;nan
70758;BME280;59316;52.964;7.102;2023-04-06T15:26:27;101404.31;;;14.70;nan
70758;BME280;59316;52.964;7.102;2023-04-06T15:31:49;101400.13;;;14.93;nan
70758;BME280;59316;52.964;7.102;2023-04-06T15:37:10;101403.38;;;14.58;nan
70758;BME280;59316;52.964;7.102;2023-04-06T15:42:32;101410.31;;;14.46;nan
70758;BME280;59316;52.964;7.102;2023-04-06T15:47:53;101407.31;;;14.25;nan
70758;BME280;59316;52.964;7.102;2023-04-06T15:53:15;101402.16;;;14.23;nan
70758;BME280;59316;52.964;7.102;2023-04-06T15:58:37;101411.84;;;13.95;nan
70758;BME280;59316;52.964;7.102;2023-04-06T16:03:58;101414.34;;;13.84;nan
70758;BME280;59316;52.964;7.102;2023-04-06T16:09:20;101418.81;;;13.55;nan
70758;BME280;59316;52.964;7.102;2023-04-06T16:14:41;101404.84;;;13.40;nan
70758;BME280;59316;52.964;7.102;2023-04-06T16:20:03;101407.50;;;13.11;nan
70758;BME280;59316;52.964;7.102;2023-04-06T16:25:25;101420.25;;;12.88;nan
70758;BME280;59316;52.964;7.102;2023-04-06T16:30:46;101431.28;;;12.79;nan
70758;BME280;59316;52.964;7.102;2023-04-06T16:36:08;101421.34;;;12.70;nan
70758;BME280;59316;52.964;7.102;2023-04-06T16:41:30;101438.22;;;12.80;nan
70758;BME280;59316;52.964;7.102;2023-04-06T16:46:52;101451.34;;;12.65;nan
70758;BME280;59316;52.964;7.102;2023-04-06T16:52:14;101451.28;;;12.35;nan
70758;BME280;59316;52.964;7.102;2023-04-06T16:57:35;101462.03;;;12.00;nan
70758;BME280;59316;52.964;7.102;2023-04-06T17:02:57;101456.41;;;11.74;nan
70758;BME280;59316;52.964;7.102;2023-04-06T17:08:19;101453.63;;;11.45;nan
70758;BME280;59316;52.964;7.102;2023-04-06T17:13:41;101460.50;;;11.30;nan
70758;BME280;59316;52.964;7.102;2023-04-06T17:19:03;101461.72;;;11.07;nan
70758;BME280;59316;52.964;7.102;2023-04-06T17:24:25;101480.00;;;10.74;nan
70758;BME280;59316;52.964;7.102;2023-04-06T17:29:47;101485.13;;;10.58;nan
70758;BME280;59316;52.964;7.102;2023-04-06T17:35:09;101474.00;;;10.35;nan
70758;BME280;59316;52.964;7.102;2023-04-06T17:40:30;101482.44;;;10.23;nan
70758;BME280;59316;52.964;7.102;2023-04-06T17:45:52;101489.59;;;10.19;nan
70758;BME280;59316;52.964;7.102;2023-04-06T17:51:13;101487.91;;;9.99;nan
70758;BME280;59316;52.964;7.102;2023-04-06T17:56:35;101475.19;;;9.72;nan
70758;BME280;59316;52.964;7.102;2023-04-06T18:01:57;101495.38;;;9.68;nan
70758;BME280;59316;52.964;7.102;2023-04-06T18:07:18;101491.81;;;9.52;nan
70758;BME280;59316;52.964;7.102;2023-04-06T18:12:40;101489.19;;;9.31;nan
70758;BME280;59316;52.964;7.102;2023-04-06T18:18:02;101491.19;;;9.05;nan
70758;BME280;59316;52.964;7.102;2023-04-06T18:23:24;101498.13;;;9.07;nan
70758;BME280;59316;52.964;7.102;2023-04-06T18:28:46;101492.75;;;9.10;nan
70758;BME280;59316;52.964;7.102;2023-04-06T18:34:07;101484.47;;;9.20;nan
70758;BME280;59316;52.964;7.102;2023-04-06T18:39:29;101492.38;;;9.19;nan
70758;BME280;59316;52.964;7.102;2023-04-06T18:44:51;101482.28;;;9.11;nan
70758;BME280;59316;52.964;7.102;2023-04-06T18:50:12;101496.22;;;9.10;nan
70758;BME280;59316;52.964;7.102;2023-04-06T18:55:34;101506.13;;;9.02;nan
70758;BME280;59316;52.964;7.102;2023-04-06T19:00:55;101498.75;;;9.12;nan
70758;BME280;59316;52.964;7.102;2023-04-06T19:06:17;101499.47;;;9.15;nan
70758;BME280;59316;52.964;7.102;2023-04-06T19:11:40;101493.34;;;9.16;nan
70758;BME280;59316;52.964;7.102;2023-04-06T19:17:01;101497.94;;;9.11;nan
70758;BME280;59316;52.964;7.102;2023-04-06T19:22:23;101499.88;;;9.06;nan
70758;BME280;59316;52.964;7.102;2023-04-06T19:27:44;101506.91;;;9.04;nan
70758;BME280;59316;52.964;7.102;2023-04-06T19:33:06;101505.28;;;8.81;nan
70758;BME280;59316;52.964;7.102;2023-04-06T19:38:28;101498.03;;;8.87;nan
70758;BME280;59316;52.964;7.102;2023-04-06T19:43:49;101497.78;;;8.94;nan
70758;BME280;59316;52.964;7.102;2023-04-06T19:49:12;101491.53;;;8.98;nan
70758;BME280;59316;52.964;7.102;2023-04-06T19:54:34;101502.09;;;8.95;nan
70758;BME280;59316;52.964;7.102;2023-04-06T19:59:56;101498.28;;;9.02;nan
70758;BME280;59316;52.964;7.102;2023-04-06T20:05:18;101498.59;;;8.96;nan
70758;BME280;59316;52.964;7.102;2023-04-06T20:10:39;101501.03;;;8.99;nan
70758;BME280;59316;52.964;7.102;2023-04-06T20:16:01;101497.53;;;9.00;nan
70758;BME280;59316;52.964;7.102;2023-04-06T20:21:23;101496.34;;;9.07;nan
70758;BME280;59316;52.964;7.102;2023-04-06T20:26:45;101484.59;;;8.97;nan
70758;BME280;59316;52.964;7.102;2023-04-06T20:32:06;101486.31;;;8.98;nan
70758;BME280;59316;52.964;7.102;2023-04-06T20:37:28;101485.19;;;8.83;nan
70758;BME280;59316;52.964;7.102;2023-04-06T20:42:53;101488.25;;;8.93;nan
70758;BME280;59316;52.964;7.102;2023-04-06T20:48:14;101481.63;;;8.85;nan
70758;BME280;59316;52.964;7.102;2023-04-06T20:53:36;101477.44;;;8.81;nan
70758;BME280;59316;52.964;7.102;2023-04-06T20:58:57;101475.53;;;8.85;nan
70758;BME280;59316;52.964;7.102;2023-04-06T21:04:19;101472.69;;;8.70;nan
70758;BME280;59316;52.964;7.102;2023-04-06T21:09:41;101468.94;;;8.76;nan
70758;BME280;59316;52.964;7.102;2023-04-06T21:15:03;101476.59;;;8.81;nan
70758;BME280;59316;52.964;7.102;2023-04-06T21:20:25;101472.88;;;8.86;nan
70758;BME280;59316;52.964;7.102;2023-04-06T21:25:46;101471.63;;;8.75;nan
70758;BME280;59316;52.964;7.102;2023-04-06T21:31:08;101462.97;;;8.74;nan
70758;BME280;59316;52.964;7.102;2023-04-06T21:36:29;101467.00;;;8.81;nan
70758;BME280;59316;52.964;7.102;2023-04-06T21:41:51;101460.41;;;8.72;nan
70758;BME280;59316;52.964;7.102;2023-04-06T21:47:12;101453.38;;;8.75;nan
70758;BME280;59316;52.964;7.102;2023-04-06T21:52:34;101450.84;;;8.73;nan
70758;BME280;59316;52.964;7.102;2023-04-06T21:57:55;101459.56;;;8.72;nan
70758;BME280;59316;52.964;7.102;2023-04-06T22:03:17;101448.97;;;8.77;nan
70758;BME280;59316;52.964;7.102;2023-04-06T22:08:39;101442.88;;;8.76;nan
70758;BME280;59316;52.964;7.102;2023-04-06T22:14:00;101441.97;;;8.77;nan
70758;BME280;59316;52.964;7.102;2023-04-06T22:19:22;101432.38;;;8.78;nan
70758;BME280;59316;52.964;7.102;2023-04-06T22:24:43;101439.03;;;8.85;nan
70758;BME280;59316;52.964;7.102;2023-04-06T22:30:05;101432.31;;;8.79;nan
70758;BME280;59316;52.964;7.102;2023-04-06T22:35:27;101432.38;;;8.78;nan
70758;BME280;59316;52.964;7.102;2023-04-06T22:40:49;101440.16;;;8.79;nan
70758;BME280;59316;52.964;7.102;2023-04-06T22:46:11;101427.63;;;8.87;nan
70758;BME280;59316;52.964;7.102;2023-04-06T22:51:32;101425.09;;;8.86;nan
70758;BME280;59316;52.964;7.102;2023-04-06T22:56:53;101424.16;;;8.87;nan
70758;BME280;59316;52.964;7.102;2023-04-06T23:02:15;101420.50;;;8.91;nan
70758;BME280;59316;52.964;7.102;2023-04-06T23:07:37;101408.59;;;8.85;nan
70758;BME280;59316;52.964;7.102;2023-04-06T23:12:58;101418.72;;;8.92;nan
70758;BME280;59316;52.964;7.102;2023-04-06T23:18:20;101421.88;;;9.00;nan
70758;BME280;59316;52.964;7.102;2023-04-06T23:23:41;101410.06;;;8.91;nan
70758;BME280;59316;52.964;7.102;2023-04-06T23:29:03;101417.63;;;8.97;nan
70758;BME280;59316;52.964;7.102;2023-04-06T23:34:24;101418.72;;;8.92;nan
70758;BME280;59316;52.964;7.102;2023-04-06T23:39:46;101413.81;;;9.04;nan
70758;BME280;59316;52.964;7.102;2023-04-06T23:45:08;101420.09;;;9.00;nan
70758;BME280;59316;52.964;7.102;2023-04-06T23:50:29;101419.00;;;9.06;nan
70758;BME280;59316;52.964;7.102;2023-04-06T23:55:51;101422.50;;;9.05;nan
